createdAt,value
2018-11-11T00:00:37.257Z,34.90
2018-11-11T00:03:06.139Z,40.03
2018-11-11T00:05:34.866Z,41.55
2018-11-11T00:08:03.596Z,34.98
2018-11-11T00:10:32.301Z,32.70
2018-11-11T00:13:06.282Z,38.28
2018-11-11T00:15:36.625Z,35.95
2018-11-11T00:18:05.417Z,34.75
2018-11-11T00:20:34.234Z,33.88
2018-11-11T00:23:03.075Z,28.23
2018-11-11T00:25:31.829Z,33.70
2018-11-11T00:28:00.648Z,31.95
2018-11-11T00:30:29.408Z,37.98
2018-11-11T00:32:58.185Z,48.23
2018-11-11T00:35:26.990Z,39.40
2018-11-11T00:37:55.707Z,39.23
2018-11-11T00:40:24.510Z,47.53
2018-11-11T00:42:53.269Z,41.25
2018-11-11T00:45:21.982Z,36.98
2018-11-11T00:47:50.741Z,42.85
2018-11-11T00:50:19.431Z,41.42
2018-11-11T00:52:48.269Z,30.17
2018-11-11T00:55:17.641Z,33.65
2018-11-11T00:57:46.681Z,32.75
2018-11-11T01:00:18.561Z,33.90
2018-11-11T01:02:47.827Z,31.52
2018-11-11T01:05:16.631Z,28.27
2018-11-11T01:07:45.425Z,26.45
2018-11-11T01:10:15.733Z,29.82
2018-11-11T01:12:44.921Z,25.72
2018-11-11T01:15:14.919Z,26.15
2018-11-11T01:17:43.711Z,26.40
2018-11-11T01:20:13.646Z,26.00
2018-11-11T01:22:42.687Z,26.82
2018-11-11T01:25:13.916Z,21.82
2018-11-11T01:27:43.028Z,26.50
2018-11-11T01:30:11.976Z,27.73
2018-11-11T01:32:40.692Z,24.27
2018-11-11T01:35:11.817Z,22.67
2018-11-11T01:37:41.066Z,30.23
2018-11-11T01:40:09.913Z,22.73
2018-11-11T01:42:38.650Z,22.58
2018-11-11T01:45:10.603Z,24.35
2018-11-11T01:47:39.358Z,22.75
2018-11-11T01:50:08.924Z,18.95
2018-11-11T01:52:37.713Z,20.20
2018-11-11T01:55:06.479Z,20.00
2018-11-11T01:57:36.198Z,31.77
2018-11-11T02:00:05.693Z,26.50
2018-11-11T02:02:34.388Z,24.80
2018-11-11T02:05:03.088Z,28.05
2018-11-11T02:07:31.776Z,31.25
2018-11-11T02:10:00.603Z,27.62
2018-11-11T02:12:29.359Z,23.90
2018-11-11T02:14:58.210Z,28.80
2018-11-11T02:17:31.748Z,26.62
2018-11-11T02:20:08.969Z,29.70
2018-11-11T02:22:43.197Z,29.20
2018-11-11T02:25:18.301Z,27.32
2018-11-11T02:27:51.237Z,32.78
2018-11-11T02:30:25.492Z,26.17
2018-11-11T02:33:00.793Z,30.72
2018-11-11T02:35:34.801Z,25.35
2018-11-11T02:38:07.778Z,30.27
2018-11-11T02:40:36.591Z,26.05
2018-11-11T02:43:05.446Z,34.73
2018-11-11T02:45:34.272Z,30.68
2018-11-11T02:48:04.304Z,29.45
2018-11-11T02:50:33.118Z,32.70
2018-11-11T02:53:01.907Z,27.80
2018-11-11T02:55:30.746Z,31.85
2018-11-11T02:57:59.565Z,26.17
2018-11-11T03:00:28.266Z,29.98
2018-11-11T03:02:57.080Z,28.45
2018-11-11T03:05:25.918Z,30.10
2018-11-11T03:07:54.677Z,26.77
2018-11-11T03:10:23.525Z,27.82
2018-11-11T03:12:52.266Z,32.55
2018-11-11T03:15:21.170Z,30.27
2018-11-11T03:17:49.941Z,23.77
2018-11-11T03:20:19.253Z,26.00
2018-11-11T03:22:48.032Z,27.93
2018-11-11T03:25:17.434Z,39.70
2018-11-11T03:27:46.325Z,36.40
2018-11-11T03:30:16.399Z,25.68
2018-11-11T03:32:45.218Z,42.27
2018-11-11T03:35:14.581Z,34.48
2018-11-11T03:37:44.139Z,30.08
2018-11-11T03:40:14.995Z,40.03
2018-11-11T03:42:44.126Z,32.20
2018-11-11T03:45:14.312Z,35.03
2018-11-11T03:47:44.086Z,30.35
2018-11-11T03:50:12.837Z,23.55
2018-11-11T03:52:41.956Z,33.23
2018-11-11T03:55:10.870Z,29.85
2018-11-11T03:57:39.670Z,30.62
2018-11-11T04:00:11.806Z,33.95
2018-11-11T04:02:40.642Z,31.27
2018-11-11T04:05:10.861Z,29.87
2018-11-11T04:07:40.052Z,31.50
2018-11-11T04:10:11.192Z,28.95
2018-11-11T04:12:40.460Z,26.62
2018-11-11T04:15:11.125Z,27.82
2018-11-11T04:17:40.008Z,29.77
2018-11-11T04:20:10.981Z,34.88
2018-11-11T04:22:39.785Z,29.45
2018-11-11T04:25:08.842Z,31.57
2018-11-11T04:27:37.676Z,32.63
2018-11-11T04:30:07.169Z,33.90
2018-11-11T04:32:35.913Z,31.37
2018-11-11T04:35:05.017Z,28.57
2018-11-11T04:37:33.746Z,28.92
2018-11-11T04:40:02.494Z,28.40
2018-11-11T04:42:31.301Z,28.32
2018-11-11T04:45:00.058Z,36.58
2018-11-11T04:47:28.860Z,30.88
2018-11-11T04:49:57.603Z,27.20
2018-11-11T04:52:26.330Z,27.50
2018-11-11T04:54:55.037Z,34.25
2018-11-11T04:57:23.823Z,31.50
2018-11-11T04:59:52.548Z,32.28
2018-11-11T05:02:21.259Z,31.00
2018-11-11T05:04:50.024Z,31.60
2018-11-11T05:07:18.619Z,24.63
2018-11-11T05:09:47.340Z,29.40
2018-11-11T05:12:16.066Z,27.90
2018-11-11T05:14:44.941Z,27.87
2018-11-11T05:17:13.725Z,27.20
2018-11-11T05:19:42.477Z,27.35
2018-11-11T05:22:11.239Z,29.37
2018-11-11T05:24:40.041Z,28.85
2018-11-11T05:27:08.794Z,24.30
2018-11-11T05:29:37.625Z,26.82
2018-11-11T05:32:06.556Z,28.25
2018-11-11T05:34:35.393Z,33.23
2018-11-11T05:37:04.164Z,30.97
2018-11-11T05:39:32.985Z,32.90
2018-11-11T05:42:01.740Z,31.48
2018-11-11T05:44:30.452Z,29.15
2018-11-11T05:46:59.155Z,31.65
2018-11-11T05:49:27.850Z,39.20
2018-11-11T05:51:56.548Z,33.10
2018-11-11T05:54:25.281Z,32.48
2018-11-11T05:56:53.986Z,35.43
2018-11-11T05:59:22.757Z,30.60
2018-11-11T06:01:51.460Z,32.38
2018-11-11T06:04:20.124Z,33.40
2018-11-11T06:06:48.825Z,35.13
2018-11-11T06:09:17.541Z,33.05
2018-11-11T06:11:46.302Z,30.95
2018-11-11T06:14:15.150Z,41.98
2018-11-11T06:16:43.946Z,26.97
2018-11-11T06:19:12.946Z,34.73
2018-11-11T06:21:42.188Z,33.67
2018-11-11T06:24:11.673Z,33.08
2018-11-11T06:26:41.461Z,36.42
2018-11-11T06:29:10.774Z,27.73
2018-11-11T06:31:40.414Z,35.90
2018-11-11T06:34:09.576Z,28.98
2018-11-11T06:36:38.623Z,30.88
2018-11-11T06:39:09.503Z,35.68
2018-11-11T06:41:38.313Z,38.38
2018-11-11T06:44:07.306Z,33.48
2018-11-11T06:46:36.171Z,27.93
2018-11-11T06:49:05.021Z,29.80
2018-11-11T06:51:33.770Z,34.00
2018-11-11T06:54:02.536Z,32.35
2018-11-11T06:56:31.266Z,37.25
2018-11-11T06:58:59.990Z,33.63
2018-11-11T07:01:28.821Z,33.55
2018-11-11T07:04:01.903Z,43.45
2018-11-11T07:06:31.289Z,38.75
2018-11-11T07:09:00.087Z,34.20
2018-11-11T07:11:28.946Z,33.30
2018-11-11T07:13:57.833Z,31.15
2018-11-11T07:16:26.689Z,30.52
2018-11-11T07:18:55.453Z,37.93
2018-11-11T07:21:24.139Z,33.00
2018-11-11T07:23:52.845Z,32.10
2018-11-11T07:26:21.594Z,32.45
2018-11-11T07:28:50.388Z,31.87
2018-11-11T07:31:19.184Z,23.18
2018-11-11T07:33:47.904Z,27.07
2018-11-11T07:36:16.586Z,29.20
2018-11-11T07:38:45.356Z,27.05
2018-11-11T07:41:14.049Z,32.63
2018-11-11T07:43:48.787Z,41.85
2018-11-11T07:46:17.556Z,32.35
2018-11-11T07:48:46.237Z,27.07
2018-11-11T07:51:14.990Z,25.60
2018-11-11T07:53:43.775Z,30.52
2018-11-11T07:56:12.589Z,35.40
2018-11-11T07:58:41.452Z,22.87
2018-11-11T08:01:10.298Z,25.32
2018-11-11T08:03:39.117Z,24.57
2018-11-11T08:06:07.882Z,21.87
2018-11-11T08:08:36.697Z,19.27
2018-11-11T08:11:16.695Z,21.37
2018-11-11T08:13:45.454Z,13.08
2018-11-11T08:16:14.237Z,18.98
2018-11-11T08:18:43.013Z,15.50
2018-11-11T08:21:11.714Z,17.98
2018-11-11T08:23:40.464Z,12.50
2018-11-11T08:26:09.289Z,15.08
2018-11-11T08:28:38.026Z,9.55
2018-11-11T08:31:06.863Z,7.15
2018-11-11T08:33:35.693Z,8.23
2018-11-11T08:36:04.459Z,10.77
2018-11-11T08:38:33.350Z,12.10
2018-11-11T08:41:02.365Z,8.80
2018-11-11T08:43:31.222Z,12.80
2018-11-11T08:45:59.995Z,8.17
2018-11-11T08:48:28.770Z,8.30
2018-11-11T08:50:57.559Z,9.30
2018-11-11T08:53:26.280Z,9.20
2018-11-11T08:55:55.067Z,9.47
2018-11-11T08:58:25.213Z,7.37
2018-11-11T09:00:54.131Z,8.63
2018-11-11T09:03:22.947Z,6.37
2018-11-11T09:05:51.833Z,10.70
2018-11-11T09:08:20.688Z,7.60
2018-11-11T09:10:50.011Z,10.00
2018-11-11T09:13:19.413Z,7.23
2018-11-11T09:15:48.347Z,7.07
2018-11-11T09:18:17.365Z,6.80
2018-11-11T09:20:46.285Z,9.80
2018-11-11T09:23:15.450Z,8.73
2018-11-11T09:25:44.540Z,11.07
2018-11-11T09:28:14.060Z,11.33
2018-11-11T09:30:43.047Z,9.90
2018-11-11T09:33:12.809Z,8.27
2018-11-11T09:35:41.881Z,11.03
2018-11-11T09:38:10.632Z,8.00
2018-11-11T09:40:39.674Z,10.60
2018-11-11T09:43:09.654Z,6.43
2018-11-11T09:45:39.053Z,16.82
2018-11-11T09:48:09.476Z,8.28
2018-11-11T09:50:39.025Z,6.60
2018-11-11T09:53:08.222Z,9.63
2018-11-11T09:55:37.185Z,7.62
2018-11-11T09:58:06.138Z,6.40
2018-11-11T10:00:35.350Z,15.67
2018-11-11T10:03:08.873Z,6.50
2018-11-11T10:06:12.705Z,5.90
2018-11-11T10:08:52.372Z,4.57
2018-11-11T10:11:30.381Z,4.50
2018-11-11T10:14:04.461Z,3.83
2018-11-11T10:16:38.390Z,3.30
2018-11-11T10:19:15.001Z,2.90
2018-11-11T10:21:47.842Z,2.90
2018-11-11T10:24:23.032Z,5.00
2018-11-11T10:26:59.688Z,3.03
2018-11-11T10:29:41.966Z,8.63
2018-11-11T10:32:28.170Z,2.63
2018-11-11T10:35:05.676Z,3.10
2018-11-11T10:37:45.054Z,3.10
2018-11-11T10:40:50.926Z,2.80
2018-11-11T10:43:29.679Z,2.63
2018-11-11T10:46:04.456Z,3.13
2018-11-11T10:48:37.292Z,2.90
2018-11-11T10:51:06.713Z,2.30
2018-11-11T10:53:35.495Z,3.77
2018-11-11T10:56:04.289Z,7.27
2018-11-11T10:58:32.989Z,2.53
2018-11-11T11:01:07.058Z,2.00
2018-11-11T11:03:36.998Z,4.23
2018-11-11T11:06:05.874Z,2.80
2018-11-11T11:08:34.577Z,2.77
2018-11-11T11:11:03.344Z,2.93
2018-11-11T11:13:32.216Z,5.23
2018-11-11T11:16:00.905Z,2.30
2018-11-11T11:18:29.642Z,2.63
2018-11-11T11:20:58.846Z,4.63
2018-11-11T11:23:27.961Z,3.50
2018-11-11T11:25:56.766Z,3.50
2018-11-11T11:28:25.538Z,2.60
2018-11-11T11:30:54.198Z,3.43
2018-11-11T11:33:23.189Z,2.10
2018-11-11T11:35:52.482Z,4.80
2018-11-11T11:38:21.283Z,2.63
2018-11-11T11:40:50.166Z,2.80
2018-11-11T11:43:19.052Z,1.70
2018-11-11T11:45:47.785Z,2.37
2018-11-11T11:48:16.684Z,3.60
2018-11-11T11:50:45.641Z,2.47
2018-11-11T11:53:14.533Z,2.00
2018-11-11T11:55:43.424Z,2.60
2018-11-11T11:58:17.211Z,1.90
2018-11-11T12:00:46.149Z,3.70
2018-11-11T12:03:15.375Z,4.80
2018-11-11T12:05:45.003Z,2.70
2018-11-11T12:08:14.411Z,5.50
2018-11-11T12:10:43.339Z,2.27
2018-11-11T12:13:13.342Z,3.60
2018-11-11T12:15:42.749Z,2.63
2018-11-11T12:18:11.926Z,3.03
2018-11-11T12:20:41.350Z,5.00
2018-11-11T12:23:11.325Z,2.80
2018-11-11T12:25:40.516Z,6.50
2018-11-11T12:28:09.835Z,2.60
2018-11-11T12:30:38.754Z,1.83
2018-11-11T12:33:07.599Z,2.50
2018-11-11T12:35:36.545Z,1.63
2018-11-11T12:38:05.563Z,1.77
2018-11-11T12:40:34.438Z,6.83
2018-11-11T12:43:03.258Z,8.00
2018-11-11T12:45:32.088Z,3.47
2018-11-11T12:48:00.962Z,1.90
2018-11-11T12:50:30.807Z,8.10
2018-11-11T12:52:59.916Z,1.50
2018-11-11T12:55:30.054Z,1.93
2018-11-11T12:57:58.918Z,2.13
2018-11-11T13:00:29.342Z,3.10
2018-11-11T13:02:58.089Z,2.83
2018-11-11T13:05:27.463Z,2.50
2018-11-11T13:07:58.192Z,3.53
2018-11-11T13:10:27.272Z,1.63
2018-11-11T13:12:56.252Z,1.53
2018-11-11T13:15:25.105Z,1.77
2018-11-11T13:17:54.111Z,1.57
2018-11-11T13:20:23.086Z,6.80
2018-11-11T13:22:52.106Z,1.57
2018-11-11T13:25:21.186Z,1.30
2018-11-11T13:27:50.337Z,2.80
2018-11-11T13:30:19.246Z,5.50
2018-11-11T13:32:48.627Z,3.20
2018-11-11T13:35:17.644Z,7.20
2018-11-11T13:37:46.603Z,2.10
2018-11-11T13:40:17.823Z,6.20
2018-11-11T13:42:47.292Z,3.83
2018-11-11T13:45:21.740Z,3.77
2018-11-11T13:47:51.997Z,2.37
2018-11-11T13:50:23.699Z,1.57
2018-11-11T13:52:52.618Z,10.33
2018-11-11T13:55:22.058Z,2.30
2018-11-11T13:57:51.416Z,5.13
2018-11-11T14:00:24.461Z,1.80
2018-11-11T14:02:53.872Z,2.10
2018-11-11T14:05:23.062Z,1.67
2018-11-11T14:07:52.839Z,2.50
2018-11-11T14:10:22.502Z,2.73
2018-11-11T14:12:51.834Z,1.97
2018-11-11T14:15:26.089Z,3.00
2018-11-11T14:17:56.077Z,4.03
2018-11-11T14:20:31.865Z,2.40
2018-11-11T14:23:00.845Z,2.90
2018-11-11T14:25:30.785Z,3.73
2018-11-11T14:27:59.824Z,3.30
2018-11-11T14:30:30.295Z,2.10
2018-11-11T14:32:59.804Z,2.27
2018-11-11T14:35:29.679Z,4.00
2018-11-11T14:37:59.000Z,4.43
2018-11-11T14:40:29.558Z,2.50
2018-11-11T14:42:59.207Z,2.70
2018-11-11T14:45:28.389Z,2.03
2018-11-11T14:47:59.092Z,4.60
2018-11-11T14:50:28.402Z,2.10
2018-11-11T14:52:57.939Z,3.93
2018-11-11T14:55:29.149Z,3.53
2018-11-11T14:58:00.070Z,2.10
2018-11-11T15:00:34.240Z,2.20
2018-11-11T15:03:10.136Z,1.90
2018-11-11T15:05:39.414Z,3.08
2018-11-11T15:08:08.631Z,2.17
2018-11-11T15:10:37.961Z,2.90
2018-11-11T15:13:08.526Z,2.27
2018-11-11T15:15:37.630Z,2.42
2018-11-11T15:18:07.448Z,4.33
2018-11-11T15:20:37.116Z,2.92
2018-11-11T15:23:06.724Z,3.62
2018-11-11T15:25:36.301Z,4.60
2018-11-11T15:28:06.790Z,4.50
2018-11-11T15:30:37.612Z,1.90
2018-11-11T15:33:07.787Z,2.10
2018-11-11T15:35:36.825Z,2.05
2018-11-11T15:38:06.615Z,2.10
2018-11-11T15:40:37.756Z,1.77
2018-11-11T15:43:07.509Z,2.33
2018-11-11T15:45:37.333Z,2.55
2018-11-11T15:48:07.520Z,10.40
2018-11-11T15:50:37.165Z,3.40
2018-11-11T15:53:07.512Z,2.85
2018-11-11T15:55:37.652Z,2.80
2018-11-11T15:58:06.952Z,2.60
2018-11-11T16:00:37.352Z,3.87
2018-11-11T16:03:06.518Z,3.08
2018-11-11T16:05:35.666Z,3.00
2018-11-11T16:08:04.685Z,2.35
2018-11-11T16:10:34.307Z,2.33
2018-11-11T16:13:03.826Z,2.25
2018-11-11T16:15:37.098Z,3.95
2018-11-11T16:18:08.167Z,2.40
2018-11-11T16:20:37.277Z,2.20
2018-11-11T16:23:07.552Z,3.87
2018-11-11T16:25:36.802Z,2.75
2018-11-11T16:28:06.307Z,2.30
2018-11-11T16:30:36.458Z,3.55
2018-11-11T16:33:06.211Z,2.75
2018-11-11T16:35:35.101Z,2.50
2018-11-11T16:38:04.159Z,3.02
2018-11-11T16:40:34.544Z,2.52
2018-11-11T16:43:03.715Z,2.30
2018-11-11T16:45:33.952Z,4.03
2018-11-11T16:48:02.938Z,2.80
2018-11-11T16:50:32.937Z,3.22
2018-11-11T17:01:33.665Z,2.70
2018-11-11T17:04:02.526Z,5.30
2018-11-11T17:06:31.625Z,3.72
2018-11-11T17:09:00.629Z,8.08
2018-11-11T17:11:30.116Z,2.95
2018-11-11T17:13:59.185Z,5.33
2018-11-11T17:16:28.635Z,4.00
2018-11-11T17:18:57.695Z,9.18
2018-11-11T17:21:26.958Z,2.80
2018-11-11T17:23:55.997Z,3.30
2018-11-11T17:26:25.360Z,5.75
2018-11-11T17:28:54.879Z,3.50
2018-11-11T17:31:24.989Z,5.78
2018-11-11T17:33:53.982Z,3.08
2018-11-11T17:36:24.391Z,3.95
2018-11-11T17:38:53.700Z,2.98
2018-11-11T17:41:23.404Z,3.00
2018-11-11T17:43:52.229Z,6.70
2018-11-11T17:46:21.141Z,3.00
2018-11-11T17:48:50.490Z,4.03
2018-11-11T17:51:19.667Z,8.78
2018-11-11T17:53:48.505Z,3.65
2018-11-11T17:56:17.610Z,7.35
2018-11-11T17:58:46.401Z,3.62
2018-11-11T18:01:15.278Z,6.35
2018-11-11T18:03:44.457Z,3.52
2018-11-11T18:06:13.999Z,9.75
2018-11-11T18:08:42.774Z,3.80
2018-11-11T18:11:11.674Z,3.98
2018-11-11T18:13:40.584Z,7.15
2018-11-11T18:16:09.797Z,5.95
2018-11-11T18:18:38.893Z,3.90
2018-11-11T18:21:07.753Z,3.85
2018-11-11T18:23:36.793Z,5.62
2018-11-11T18:26:05.764Z,5.83
2018-11-11T18:28:34.689Z,5.17
2018-11-11T18:31:05.336Z,5.33
2018-11-11T18:33:35.233Z,2.62
2018-11-11T18:36:04.333Z,2.85
2018-11-11T18:38:33.741Z,4.30
2018-11-11T18:41:03.039Z,6.95
2018-11-11T18:43:32.390Z,2.60
2018-11-11T18:46:01.711Z,4.33
2018-11-11T18:48:32.606Z,2.65
2018-11-11T18:51:02.071Z,3.70
2018-11-11T18:53:31.079Z,3.20
2018-11-11T18:56:00.094Z,3.37
2018-11-11T18:58:28.933Z,2.80
2018-11-11T19:00:58.720Z,3.72
2018-11-11T19:03:28.111Z,3.70
2018-11-11T19:05:59.299Z,3.15
2018-11-11T19:08:28.635Z,3.12
2018-11-11T19:10:58.330Z,3.62
2018-11-11T19:13:27.531Z,3.67
2018-11-11T19:15:57.063Z,5.90
2018-11-11T19:18:26.642Z,5.22
2018-11-11T19:20:56.866Z,4.03
2018-11-11T19:23:26.056Z,6.62
2018-11-11T19:25:55.458Z,8.80
2018-11-11T19:28:25.619Z,8.38
2018-11-11T19:31:01.472Z,5.60
2018-11-11T19:33:31.451Z,9.35
2018-11-11T19:36:00.325Z,5.17
2018-11-11T19:38:29.458Z,7.03
2018-11-11T19:40:58.430Z,5.33
2018-11-11T19:43:27.375Z,9.03
2018-11-11T19:45:56.407Z,5.50
2018-11-11T19:48:25.426Z,5.85
2018-11-11T19:50:54.518Z,9.43
2018-11-11T19:53:23.526Z,5.90
2018-11-11T19:55:52.470Z,10.30
2018-11-11T19:58:21.417Z,10.25
2018-11-11T20:00:50.377Z,12.35
2018-11-11T20:03:19.447Z,12.70
2018-11-11T20:05:48.307Z,6.15
2018-11-11T20:08:18.726Z,5.58
2018-11-11T20:10:47.701Z,9.18
2018-11-11T20:13:16.617Z,8.13
2018-11-11T20:15:45.569Z,7.40
2018-11-11T20:18:14.382Z,6.47
2018-11-11T20:20:43.326Z,7.83
2018-11-11T20:23:12.338Z,18.27
2018-11-11T20:25:41.229Z,6.90
2018-11-11T20:28:10.077Z,10.98
2018-11-11T20:30:39.097Z,9.78
2018-11-11T20:33:08.064Z,12.73
2018-11-11T20:35:36.958Z,23.20
2018-11-11T20:38:05.840Z,7.60
2018-11-11T20:40:34.833Z,10.72
2018-11-11T20:43:03.649Z,13.05
2018-11-11T20:45:33.685Z,9.78
2018-11-11T20:48:02.558Z,11.08
2018-11-11T20:50:32.642Z,8.80
2018-11-11T20:53:02.716Z,7.05
2018-11-11T20:55:31.501Z,7.03
2018-11-11T20:58:00.437Z,8.95
2018-11-11T21:00:32.157Z,6.30
2018-11-11T21:03:01.048Z,7.92
2018-11-11T21:05:34.381Z,7.47
2018-11-11T21:08:03.260Z,7.58
2018-11-11T21:10:32.222Z,8.95
2018-11-11T21:13:01.348Z,8.00
2018-11-11T21:15:31.265Z,6.35
2018-11-11T21:18:00.036Z,8.45
2018-11-11T21:20:31.163Z,11.00
2018-11-11T21:22:59.981Z,7.72
2018-11-11T21:25:28.835Z,8.83
2018-11-11T21:27:57.858Z,6.47
2018-11-11T21:30:28.297Z,10.45
2018-11-11T21:32:57.384Z,8.20
2018-11-11T21:35:26.480Z,6.03
2018-11-11T21:37:55.490Z,9.30
2018-11-11T21:40:25.595Z,6.47
2018-11-11T21:42:55.029Z,5.95
2018-11-11T21:45:24.924Z,6.40
2018-11-11T21:47:53.770Z,6.80
2018-11-11T21:50:23.845Z,7.85
2018-11-11T21:53:01.203Z,6.10
2018-11-11T21:55:30.416Z,9.40
2018-11-11T21:57:59.308Z,12.43
2018-11-11T22:00:28.069Z,7.55
2018-11-11T22:02:56.907Z,5.95
2018-11-11T22:05:25.826Z,6.67
2018-11-11T22:07:54.602Z,5.35
2018-11-11T22:10:23.403Z,6.05
2018-11-11T22:12:52.204Z,5.55
2018-11-11T22:15:21.137Z,7.95
2018-11-11T22:17:49.923Z,7.25
2018-11-11T22:20:18.785Z,7.53
2018-11-11T22:22:47.602Z,6.30
2018-11-11T22:25:16.553Z,6.90
2018-11-11T22:27:45.379Z,7.53
2018-11-11T22:30:14.227Z,5.67
2018-11-11T22:32:43.210Z,5.42
2018-11-11T22:35:12.349Z,6.28
2018-11-11T22:37:41.179Z,5.47
2018-11-11T22:40:12.110Z,5.50
2018-11-11T22:42:40.855Z,5.97
2018-11-11T22:45:12.307Z,4.10
2018-11-11T22:47:41.125Z,5.22
2018-11-11T22:50:12.449Z,6.95
2018-11-11T22:52:41.350Z,4.87
2018-11-11T22:55:10.758Z,4.67
2018-11-11T22:57:39.982Z,4.65
2018-11-11T23:00:18.561Z,4.50
2018-11-11T23:02:47.445Z,5.92
2018-11-11T23:05:17.857Z,4.28
2018-11-11T23:07:46.756Z,4.00
2018-11-11T23:10:15.660Z,4.00
2018-11-11T23:12:44.446Z,3.92
2018-11-11T23:15:15.064Z,4.30
2018-11-11T23:17:43.942Z,3.40
2018-11-11T23:20:14.374Z,4.20
2018-11-11T23:22:43.438Z,5.97
2018-11-11T23:25:13.876Z,4.33
2018-11-11T23:27:42.772Z,6.08
2018-11-11T23:30:15.958Z,3.55
2018-11-11T23:32:44.983Z,3.00
2018-11-11T23:35:13.947Z,3.55
2018-11-11T23:37:44.017Z,4.08
2018-11-11T23:40:14.410Z,3.47
2018-11-11T23:42:44.173Z,5.35
2018-11-11T23:45:13.590Z,3.70
2018-11-11T23:47:42.532Z,3.50
2018-11-11T23:50:13.849Z,3.45
2018-11-11T23:52:43.321Z,4.17
2018-11-11T23:55:13.747Z,3.67
2018-11-11T23:57:42.672Z,4.00
